• Join FlightAware (Why Join?)
  • Login
  • US Flag 
02:34PM EST


 

Airport Tracker/Info


-or-


 

Live Flight TrackerFlight Track Log ✈ N269C ✈ 25-Apr-2014 ✈ KBFI - 3S8

Flight Track Log - Related Links

Times and Time Zones

All times are in EDT time to prevent confusion due to time zone crossing. See the N269C flight status page for this flight to view local times or setup timezone preferences in your user account.

Time Position Orientation Groundspeed Altitude Reporting Facility
EDT Latitude Longitude Course Direction KTS MPH feet Rate Location/Type
07:22PM 47.5461 -122.3181 304° West 119 137 800  Level Seattle Center
07:23PM 47.5656 -122.3600 305° West 138 159 2,100 960 Climbing Seattle Center
07:24PM 47.5517 -122.4103 248° West 143 165 2,900 840 Climbing Seattle Center
07:25PM 47.5122 -122.4483 213° Southwest 146 168 3,900 900 Climbing Seattle Center
07:26PM 47.4678 -122.4364 170° South 141 162 5,100 1,080 Climbing Seattle Center
07:27PM 47.4272 -122.4317 175° South 139 160 6,300 1,080 Climbing Seattle Center
07:28PM 47.3903 -122.4253 173° South 138 159 7,300 900 Climbing Seattle Center
07:29PM 47.3500 -122.4200 175° South 142 163 8,200 900 Climbing Seattle Center
07:30PM 47.3097 -122.4144 175° South 145 167 9,200 960 Climbing Seattle Center
07:31PM 47.2683 -122.4094 175° South 147 169 10,200 1,020 Climbing Seattle Center
07:32PM 47.2231 -122.4044 176° South 148 170 11,300 960 Climbing Seattle Center
07:33PM 47.1797 -122.4008 177° South 154 177 12,200 900 Climbing Seattle Center
07:34PM 47.1364 -122.3950 175° South 154 177 13,200 900 Climbing Seattle Center
07:35PM 47.0925 -122.3892 175° South 156 180 14,100 900 Climbing Seattle Center
07:36PM 47.0486 -122.3822 174° South 157 181 15,100 960 Climbing Seattle Center
07:37PM 47.0019 -122.3844 182° South 157 181 16,100 900 Climbing Seattle Center
07:38PM 46.9594 -122.3922 187° South 156 180 17,000 840 Climbing Seattle Center
07:39PM 46.9156 -122.3997 187° South 157 181 17,800 840 Climbing Seattle Center
07:41PM 46.8733 -122.4069 187° South 156 180 18,700 780 Climbing Seattle Center
07:42PM 46.8286 -122.4156 188° South 159 183 19,500 780 Climbing Seattle Center
07:43PM 46.7839 -122.4233 187° South 159 183 20,300 720 Climbing Seattle Center
07:44PM 46.7383 -122.4289 185° South 161 185 21,000 300 Climbing Seattle Center
07:45PM 46.6864 -122.4403 189° South 187 215 21,000  Level Seattle Center
07:46PM 46.6308 -122.4544 190° South 197 227 21,100  Climbing Seattle Center
07:47PM 46.5772 -122.4414 170° South 200 230 21,100  Level Seattle Center
07:48PM 46.5442 -122.3708 124° Southeast 211 243 21,100 -60 Level Seattle Center
07:49PM 46.4919 -122.3739 182° South 190 219 21,000  Descending Seattle Center
07:50PM 46.4319 -122.4242 210° Southwest 203 234 21,100  Climbing Seattle Center
07:51PM 46.3811 -122.4569 204° Southwest 202 232 21,000 -120 Descending Seattle Center
07:52PM 46.3297 -122.4889 203° Southwest 201 231 20,900  Descending Seattle Center
07:53PM 46.2761 -122.5150 199° South 201 231 21,000 60 Climbing Seattle Center
07:54PM 46.2197 -122.5167 181° South 200 230 21,100  Climbing Seattle Center
07:55PM 46.1628 -122.5303 189° South 200 230 21,000 -60 Descending Seattle Center
07:56PM 46.1047 -122.5381 185° South 203 234 21,000  Level Seattle Center
07:57PM 46.0483 -122.5492 188° South 204 235 21,000  Level Seattle Center
07:58PM 45.9900 -122.5586 186° South 206 237 21,000  Level Seattle Center
07:59PM 45.9331 -122.5664 185° South 205 236 21,000  Level Seattle Center
08:00PM 45.8750 -122.5733 185° South 208 239 21,100  Climbing Seattle Center
08:01PM 45.8175 -122.5825 186° South 207 238 21,100  Level Seattle Center
08:02PM 45.7603 -122.5917 186° South 206 237 21,100  Level Seattle Center
08:03PM 45.7042 -122.6042 189° South 205 236 21,100  Level Seattle Center
08:04PM 45.6478 -122.6186 190° South 205 236 21,100  Level Seattle Center
08:05PM 45.5922 -122.6336 191° South 204 235 21,100  Level Seattle Center
08:06PM 45.5367 -122.6486 191° South 203 234 21,100  Level Seattle Center
08:07PM 45.4700 -122.6644 189° South 203 234 21,100  Level Seattle Center
08:08PM 45.4139 -122.6803 191° South 203 234 21,100  Level Seattle Center
08:09PM 45.3581 -122.6944 190° South 203 234 21,100  Level Seattle Center
08:10PM 45.3025 -122.7081 190° South 202 232 21,100  Level Seattle Center
08:11PM 45.2486 -122.7231 191° South 200 230 21,100  Level Seattle Center
08:12PM 45.1953 -122.7375 191° South 199 229 21,100  Level Seattle Center
08:13PM 45.1397 -122.7503 189° South 199 229 21,100  Level Seattle Center
08:14PM 45.0839 -122.7644 190° South 200 230 21,100  Level Seattle Center
08:15PM 45.0367 -122.8033 210° Southwest 200 230 21,100  Level Seattle Center
08:16PM 44.9936 -122.8528 219° Southwest 199 229 21,100  Level Seattle Center
08:17PM 44.9497 -122.9006 218° Southwest 198 228 21,100  Level Seattle Center
08:18PM 44.9069 -122.9475 218° Southwest 198 228 21,100  Level Seattle Center
08:19PM 44.8575 -122.9778 203° Southwest 199 229 21,100  Level Seattle Center
08:20PM 44.8014 -122.9881 187° South 203 234 21,100  Level Seattle Center
08:21PM 44.7458 -122.9989 188° South 202 232 21,100  Level Seattle Center
08:22PM 44.6786 -123.0128 188° South 203 234 21,100  Level Seattle Center
08:23PM 44.6233 -123.0214 186° South 202 232 21,100  Level Seattle Center
08:24PM 44.5672 -123.0328 188° South 202 232 21,100  Level Seattle Center
08:25PM 44.5094 -123.0422 187° South 203 234 21,100  Level Seattle Center
08:26PM 44.4531 -123.0522 187° South 204 235 21,100  Level Seattle Center
08:27PM 44.3961 -123.0625 187° South 204 235 21,100  Level Seattle Center
08:28PM 44.3406 -123.0731 188° South 204 235 21,100 -60 Level Seattle Center
08:29PM 44.2847 -123.0825 187° South 203 234 21,000 -120 Descending Seattle Center
08:30PM 44.2283 -123.0919 187° South 203 234 20,900 -60 Descending Seattle Center
08:31PM 44.1728 -123.1008 187° South 203 234 20,900  Level Seattle Center
08:32PM 44.1181 -123.1106 187° South 202 232 20,900  Level Seattle Center
08:33PM 44.0631 -123.1206 187° South 202 232 20,900  Level Seattle Center
08:34PM 44.0081 -123.1317 188° South 198 228 21,000  Climbing Seattle Center
08:35PM 43.9539 -123.1400 186° South 197 227 21,000  Level Seattle Center
08:36PM 43.8903 -123.1522 188° South 195 224 21,000  Level Seattle Center
08:37PM 43.8369 -123.1608 187° South 194 223 21,000  Level Seattle Center
08:38PM 43.7842 -123.1719 189° South 194 223 21,000  Level Seattle Center
08:39PM 43.7342 -123.2019 203° Southwest 194 223 21,000  Level Seattle Center
08:40PM 43.6831 -123.2267 199° South 194 223 21,000 -300 Level Seattle Center
08:41PM 43.6292 -123.2461 195° South 195 224 20,500 -600 Descending Seattle Center
08:42PM 43.5739 -123.2650 194° South 199 229 19,900 -600 Descending Seattle Center
08:43PM 43.5169 -123.2836 193° South 208 239 19,300 -660 Descending Seattle Center
08:45PM 43.4603 -123.3039 195° South 208 239 18,600 -780 Descending Seattle Center
08:46PM 43.3989 -123.3225 192° South 211 243 17,800 -780 Descending Seattle Center
08:47PM 43.3397 -123.3383 191° South 213 245 17,100 -780 Descending Seattle Center
08:48PM 43.2811 -123.3531 190° South 211 243 16,300 -780 Descending Seattle Center
08:49PM 43.2278 -123.3639 188° South 212 244 15,600 -720 Descending Seattle Center
08:50PM 43.1694 -123.3769 189° South 212 244 14,900 -660 Descending Seattle Center
08:51PM 43.1133 -123.3997 197° South 211 243 14,300 -600 Descending Seattle Center
08:52PM 43.0458 -123.4192 192° South 208 239 13,700 -600 Descending Seattle Center
08:53PM 42.9914 -123.4300 188° South 201 231 13,100 -720 Descending Seattle Center
08:54PM 42.9336 -123.4547 197° South 216 249 12,300 -780 Descending Seattle Center
08:55PM 42.8781 -123.4697 191° South 207 238 11,600 -780 Descending Seattle Center
08:56PM 42.8206 -123.4875 193° South 202 232 10,800 -840 Descending Seattle Center
08:57PM 42.7647 -123.5058 194° South 206 237 10,000 -840 Descending Seattle Center
08:58PM 42.7125 -123.5228 193° South 196 226 9,100 -1,020 Descending Seattle Center
08:59PM 42.6594 -123.5397 193° South 196 226 8,000 -1,140 Descending Seattle Center